地図

経路データ

SID SEASON NUMBER BASIN SUBBASIN NAME ISO_TIME NATURE LAT LON WMO_WIND WMO_PRES WMO_AGENCY TRACK_TYPE DIST2LAND LANDFALL IFLAG USA_AGENCY USA_ATCF_ID USA_LAT USA_LON USA_RECORD USA_STATUS USA_WIND USA_PRES USA_SSHS USA_R34_NE USA_R34_SE USA_R34_SW USA_R34_NW USA_R50_NE USA_R50_SE USA_R50_SW USA_R50_NW USA_R64_NE USA_R64_SE USA_R64_SW USA_R64_NW USA_POCI USA_ROCI USA_RMW USA_EYE TOKYO_LAT TOKYO_LON TOKYO_GRADE TOKYO_WIND TOKYO_PRES TOKYO_R50_DIR TOKYO_R50_LONG TOKYO_R50_SHORT TOKYO_R30_DIR TOKYO_R30_LONG TOKYO_R30_SHORT TOKYO_LAND CMA_LAT CMA_LON CMA_CAT CMA_WIND CMA_PRES HKO_LAT HKO_LON HKO_CAT HKO_WIND HKO_PRES NEWDELHI_LAT NEWDELHI_LON NEWDELHI_GRADE NEWDELHI_WIND NEWDELHI_PRES NEWDELHI_CI NEWDELHI_DP NEWDELHI_POCI REUNION_LAT REUNION_LON REUNION_TYPE REUNION_WIND REUNION_PRES REUNION_TNUM REUNION_CI REUNION_RMW REUNION_R34_NE REUNION_R34_SE REUNION_R34_SW REUNION_R34_NW REUNION_R50_NE REUNION_R50_SE REUNION_R50_SW REUNION_R50_NW REUNION_R64_NE REUNION_R64_SE REUNION_R64_SW REUNION_R64_NW BOM_LAT BOM_LON BOM_TYPE BOM_WIND BOM_PRES BOM_TNUM BOM_CI BOM_RMW BOM_R34_NE BOM_R34_SE BOM_R34_SW BOM_R34_NW BOM_R50_NE BOM_R50_SE BOM_R50_SW BOM_R50_NW BOM_R64_NE BOM_R64_SE BOM_R64_SW BOM_R64_NW BOM_ROCI BOM_POCI BOM_EYE BOM_POS_METHOD BOM_PRES_METHOD NADI_LAT NADI_LON NADI_CAT NADI_WIND NADI_PRES WELLINGTON_LAT WELLINGTON_LON WELLINGTON_WIND WELLINGTON_PRES DS824_LAT DS824_LON DS824_STAGE DS824_WIND DS824_PRES TD9636_LAT TD9636_LON TD9636_STAGE TD9636_WIND TD9636_PRES TD9635_LAT TD9635_LON TD9635_WIND TD9635_PRES TD9635_ROCI NEUMANN_LAT NEUMANN_LON NEUMANN_CLASS NEUMANN_WIND NEUMANN_PRES MLC_LAT MLC_LON MLC_CLASS MLC_WIND MLC_PRES USA_GUST BOM_GUST BOM_GUST_PER REUNION_GUST REUNION_GUST_PER USA_SEAHGT USA_SEARAD_NE USA_SEARAD_SE USA_SEARAD_SW USA_SEARAD_NW STORM_SPEED STORM_DIR
1926244N21133 1926 37 WP MM NOT_NAMED 1926-09-01 10:00:00 NR 21.0000 133.300 main 1146 1094 __________O___ -1 21.0000 133.300 2 16 311
1926244N21133 1926 37 WP MM NOT_NAMED 1926-09-01 12:00:00 NR 21.3570 132.863 main 1094 1027 __________P___ -1 21.3570 132.863 2 16 311
1926244N21133 1926 37 WP MM NOT_NAMED 1926-09-01 15:00:00 NR 21.8824 132.225 main 1027 964 __________P___ -1 21.8824 132.225 2 15 312
1926244N21133 1926 37 WP MM NOT_NAMED 1926-09-01 18:00:00 NR 22.3851 131.640 main 964 905 __________P___ -1 22.3851 131.640 2 14 314
1926244N21133 1926 37 WP MM NOT_NAMED 1926-09-01 21:00:00 NR 22.8535 131.141 main 905 893 __________P___ -1 22.8535 131.141 2 13 316
1926244N21133 1926 37 WP MM NOT_NAMED 1926-09-01 22:00:00 NR 23.0000 131.000 main 893 859 __________O___ -1 23.0000 131.000 2 11 321
1926244N21133 1926 37 WP MM NOT_NAMED 1926-09-02 00:00:00 NR 23.2776 130.761 main 859 815 __________P___ -1 23.2776 130.761 2 10 325
1926244N21133 1926 37 WP MM NOT_NAMED 1926-09-02 03:00:00 NR 23.6634 130.499 main 815 782 __________P___ -1 23.6634 130.499 2 9 332
1926244N21133 1926 37 WP MM NOT_NAMED 1926-09-02 06:00:00 NR 24.0261 130.328 main 782 738 __________P___ -1 24.0261 130.328 2 8 341
1926244N21133 1926 37 WP MM NOT_NAMED 1926-09-02 09:00:00 NR 24.3809 130.224 main 738 727 __________P___ -1 24.3809 130.224 2 7 346
1926244N21133 1926 37 WP MM NOT_NAMED 1926-09-02 10:00:00 NR 24.5000 130.200 main 727 694 __________O___ -1 24.5000 130.200 2 8 348
1926244N21133 1926 37 WP MM NOT_NAMED 1926-09-02 12:00:00 NR 24.7603 130.135 main 694 650 __________P___ -1 24.7603 130.135 2 8 351
1926244N21133 1926 37 WP MM NOT_NAMED 1926-09-02 15:00:00 NR 25.1512 130.082 main 650 616 __________P___ -1 25.1512 130.082 2 8 356
1926244N21133 1926 37 WP MM NOT_NAMED 1926-09-02 18:00:00 NR 25.5314 130.071 main 616 572 __________P___ -1 25.5314 130.071 2 7 0
1926244N21133 1926 37 WP MM NOT_NAMED 1926-09-02 21:00:00 NR 25.8884 130.090 main 572 561 __________P___ -1 25.8884 130.090 2 7 0
1926244N21133 1926 37 WP MM NOT_NAMED 1926-09-02 22:00:00 NR 26.0000 130.100 main 561 539 __________O___ -1 26.0000 130.100 2 6 5
1926244N21133 1926 37 WP MM NOT_NAMED 1926-09-03 00:00:00 NR 26.2061 130.111 main 539 505 __________P___ -1 26.2061 130.111 2 6 3
1926244N21133 1926 37 WP MM NOT_NAMED 1926-09-03 03:00:00 NR 26.4901 130.146 main 505 471 __________P___ -1 26.4901 130.146 2 6 8
1926244N21133 1926 37 WP MM NOT_NAMED 1926-09-03 06:00:00 NR 26.7550 130.201 main 471 448 __________P___ -1 26.7550 130.201 2 5 12
1926244N21133 1926 37 WP MM NOT_NAMED 1926-09-03 09:00:00 NR 27.0132 130.273 main 448 437 __________P___ -1 27.0132 130.273 2 5 14
1926244N21133 1926 37 WP MM NOT_NAMED 1926-09-03 10:00:00 NR 27.1000 130.300 main 437 414 __________O___ -1 27.1000 130.300 2 6 16
1926244N21133 1926 37 WP MM NOT_NAMED 1926-09-03 12:00:00 NR 27.2766 130.358 main 414 391 __________P___ -1 27.2766 130.358 2 6 17
1926244N21133 1926 37 WP MM NOT_NAMED 1926-09-03 15:00:00 NR 27.5482 130.453 main 391 357 __________P___ -1 27.5482 130.453 2 6 18
1926244N21133 1926 37 WP MM NOT_NAMED 1926-09-03 18:00:00 NR 27.8255 130.556 main 357 323 __________P___ -1 27.8255 130.556 2 6 18
1926244N21133 1926 37 WP MM NOT_NAMED 1926-09-03 21:00:00 NR 28.1062 130.664 main 323 312 __________P___ -1 28.1062 130.664 2 6 19
1926244N21133 1926 37 WP MM NOT_NAMED 1926-09-03 22:00:00 NR 28.2000 130.700 main 312 __________O___ -1 28.2000 130.700 2 6 26

デジタル台風データ・検索

IBTrACS Databaseについて

本データベースは、米国NOAAが公開する1842年以降の世界の熱帯低気圧のベストトラックデータアーカイブInternational Best Track Archive for Climate Stewardship (IBTrACS)を、ウェブで閲覧しやすい形式に変換したものです。

最終更新日:2021-10-27